createdAt,value
2018-12-11T00:01:28.128Z,50.06
2018-12-11T00:03:59.398Z,50.02
2018-12-11T00:06:28.628Z,50.28
2018-12-11T00:08:57.828Z,50.60
2018-12-11T00:11:34.028Z,49.84
2018-12-11T00:14:01.793Z,49.67
2018-12-11T00:16:31.055Z,49.77
2018-12-11T00:19:00.235Z,49.55
2018-12-11T00:21:29.882Z,49.54
2018-12-11T00:23:59.825Z,49.58
2018-12-11T00:26:29.027Z,49.06
2018-12-11T00:28:58.331Z,49.59
2018-12-11T00:31:27.999Z,49.58
2018-12-11T00:33:58.232Z,49.62
2018-12-11T00:36:28.111Z,49.08
2018-12-11T00:38:58.564Z,49.14
2018-12-11T00:41:27.784Z,49.04
2018-12-11T00:43:57.581Z,49.70
2018-12-11T00:46:27.380Z,50.59
2018-12-11T00:48:56.568Z,50.28
2018-12-11T00:51:26.589Z,50.28
2018-12-11T00:53:55.887Z,49.79
2018-12-11T00:56:26.610Z,49.54
2018-12-11T00:58:55.794Z,49.57
2018-12-11T01:01:24.985Z,49.38
2018-12-11T01:03:54.591Z,49.28
2018-12-11T01:06:27.251Z,49.45
2018-12-11T01:08:57.514Z,49.65
2018-12-11T01:11:26.702Z,48.98
2018-12-11T01:13:56.039Z,49.25
2018-12-11T01:16:25.215Z,49.04
2018-12-11T01:18:54.538Z,48.76
2018-12-11T01:21:25.618Z,48.79
2018-12-11T01:23:55.912Z,49.19
2018-12-11T01:26:25.086Z,49.34
2018-12-11T01:28:54.322Z,49.93
2018-12-11T01:31:24.019Z,49.17
2018-12-11T01:33:54.368Z,48.68
2018-12-11T01:36:23.811Z,49.09
2018-12-11T01:38:54.116Z,49.14
2018-12-11T01:41:23.291Z,48.83
2018-12-11T01:43:54.322Z,48.76
2018-12-11T01:46:23.487Z,49.12
2018-12-11T01:48:52.707Z,48.88
2018-12-11T01:51:22.182Z,49.26
2018-12-11T01:53:51.376Z,50.03
2018-12-11T01:56:22.796Z,49.14
2018-12-11T01:58:52.155Z,49.23
2018-12-11T02:01:21.317Z,49.11
2018-12-11T02:03:50.499Z,49.36
2018-12-11T02:06:19.682Z,49.02
2018-12-11T02:08:49.727Z,49.44
2018-12-11T02:11:18.931Z,49.04
2018-12-11T02:13:48.229Z,48.89
2018-12-11T02:16:17.531Z,48.86
2018-12-11T02:18:47.374Z,48.68
2018-12-11T02:21:17.947Z,48.96
2018-12-11T02:23:47.181Z,48.64
2018-12-11T02:26:16.408Z,48.54
2018-12-11T02:28:45.658Z,48.77
2018-12-11T02:31:14.925Z,49.47
2018-12-11T02:33:45.814Z,49.12
2018-12-11T02:36:15.867Z,49.29
2018-12-11T02:38:45.092Z,48.78
2018-12-11T02:41:14.843Z,49.44
2018-12-11T02:43:44.636Z,49.42
2018-12-11T02:46:14.451Z,49.68
2018-12-11T02:48:43.600Z,49.39
2018-12-11T02:51:13.030Z,49.69
2018-12-11T02:53:42.312Z,49.17
2018-12-11T02:56:12.491Z,49.53
2018-12-11T02:58:41.776Z,48.89
2018-12-11T03:01:10.993Z,48.95
2018-12-11T03:03:40.212Z,49.55
2018-12-11T03:06:09.446Z,49.45
2018-12-11T03:08:40.789Z,49.11
2018-12-11T03:11:11.397Z,49.89
2018-12-11T03:13:40.576Z,49.99
2018-12-11T03:16:09.895Z,50.17
2018-12-11T03:18:39.544Z,50.66
2018-12-11T03:21:09.296Z,50.75
2018-12-11T03:23:38.458Z,50.09
2018-12-11T03:26:07.819Z,49.75
2018-12-11T03:28:37.051Z,49.86
2018-12-11T03:31:07.553Z,50.29
2018-12-11T03:33:38.898Z,49.66
2018-12-11T03:36:08.087Z,49.25
2018-12-11T03:38:37.244Z,49.57
2018-12-11T03:41:06.843Z,49.36
2018-12-11T03:43:36.521Z,49.65
2018-12-11T03:46:05.741Z,49.23
2018-12-11T03:48:35.067Z,49.07
2018-12-11T03:51:04.406Z,49.49
2018-12-11T03:53:35.837Z,49.54
2018-12-11T03:56:05.039Z,49.19
2018-12-11T03:58:34.204Z,48.85
2018-12-11T04:01:03.508Z,49.50
2018-12-11T04:03:32.878Z,49.68
2018-12-11T04:06:03.067Z,49.37
2018-12-11T04:08:32.237Z,48.85
2018-12-11T04:11:02.814Z,49.46
2018-12-11T04:13:32.065Z,49.37
2018-12-11T04:16:01.234Z,49.15
2018-12-11T04:18:31.793Z,49.16
2018-12-11T04:21:01.024Z,49.58
2018-12-11T04:23:30.252Z,49.42
2018-12-11T04:25:59.477Z,49.60
2018-12-11T04:28:28.710Z,49.65
2018-12-11T04:30:58.830Z,49.11
2018-12-11T04:33:29.400Z,48.89
2018-12-11T04:35:58.581Z,48.87
2018-12-11T04:38:27.757Z,48.93
2018-12-11T04:40:58.632Z,48.78
2018-12-11T04:43:29.248Z,49.00
2018-12-11T04:45:58.780Z,49.25
2018-12-11T04:48:27.991Z,49.44
2018-12-11T04:50:57.154Z,49.38
2018-12-11T04:53:27.371Z,49.48
2018-12-11T04:55:56.640Z,49.47
2018-12-11T05:05:14.072Z,51.58
2018-12-11T05:07:43.495Z,50.38
2018-12-11T05:10:12.868Z,50.06
2018-12-11T05:12:42.172Z,50.07
2018-12-11T05:15:11.356Z,50.30
2018-12-11T05:17:41.375Z,50.18
2018-12-11T05:20:10.586Z,49.92
2018-12-11T05:22:39.745Z,50.25
2018-12-11T05:25:08.914Z,50.40
2018-12-11T05:27:39.119Z,50.54
2018-12-11T05:30:10.051Z,50.25
2018-12-11T05:32:39.304Z,50.32
2018-12-11T05:35:08.709Z,50.05
2018-12-11T05:37:37.990Z,50.40
2018-12-11T05:40:07.375Z,49.84
2018-12-11T05:42:37.679Z,49.14
2018-12-11T05:45:06.877Z,49.30
2018-12-11T05:47:37.855Z,49.87
2018-12-11T05:50:08.427Z,49.76
2018-12-11T05:52:37.894Z,49.35
2018-12-11T05:55:07.468Z,48.82
2018-12-11T05:57:36.892Z,49.25
2018-12-11T06:00:08.383Z,50.18
2018-12-11T06:02:38.238Z,50.04
2018-12-11T06:05:10.142Z,50.33
2018-12-11T06:07:39.443Z,50.46
2018-12-11T06:10:09.459Z,49.90
2018-12-11T06:12:38.653Z,50.88
2018-12-11T06:15:09.829Z,50.22
2018-12-11T06:17:39.619Z,50.75
2018-12-11T06:20:09.059Z,50.58
2018-12-11T06:22:38.433Z,50.56
2018-12-11T06:25:07.655Z,50.24
2018-12-11T06:27:39.128Z,49.99
2018-12-11T06:30:09.606Z,50.62
2018-12-11T06:32:38.778Z,49.77
2018-12-11T06:35:08.423Z,49.52
2018-12-11T06:37:38.070Z,50.11
2018-12-11T06:40:08.587Z,50.40
2018-12-11T06:42:38.267Z,49.66
2018-12-11T06:45:08.544Z,49.75
2018-12-11T06:47:39.092Z,49.68
2018-12-11T06:50:08.987Z,49.67
2018-12-11T06:52:38.163Z,49.50
2018-12-11T06:55:07.496Z,49.35
2018-12-11T06:57:36.769Z,50.51
2018-12-11T07:00:06.991Z,50.26
2018-12-11T07:02:36.727Z,49.99
2018-12-11T07:05:06.747Z,49.54
2018-12-11T07:07:35.874Z,49.22
2018-12-11T07:10:06.764Z,49.67
2018-12-11T07:12:37.332Z,49.53
2018-12-11T07:15:08.102Z,49.33
2018-12-11T07:17:37.413Z,49.33
2018-12-11T07:20:08.048Z,49.35
2018-12-11T07:22:37.465Z,49.00
2018-12-11T07:25:08.123Z,48.89
2018-12-11T07:27:37.322Z,49.04
2018-12-11T07:30:07.695Z,49.54
2018-12-11T07:32:38.187Z,49.29
2018-12-11T07:35:07.494Z,49.31
2018-12-11T07:37:37.890Z,49.55
2018-12-11T07:40:07.138Z,49.03
2018-12-11T07:42:36.847Z,49.02
2018-12-11T07:45:06.771Z,49.23
2018-12-11T07:47:36.014Z,49.02
2018-12-11T07:50:06.544Z,48.96
2018-12-11T07:52:35.749Z,49.05
2018-12-11T07:55:06.010Z,48.79
2018-12-11T07:57:35.224Z,49.28
2018-12-11T08:00:06.124Z,48.78
2018-12-11T08:02:35.307Z,49.24
2018-12-11T08:05:04.734Z,49.20
2018-12-11T08:07:36.018Z,48.87
2018-12-11T08:12:41.178Z,50.74
2018-12-11T08:15:11.384Z,50.51
2018-12-11T08:17:41.599Z,49.69
2018-12-11T08:20:10.891Z,49.42
2018-12-11T08:22:40.065Z,49.23
2018-12-11T08:25:09.303Z,49.60
2018-12-11T08:27:38.566Z,49.16
2018-12-11T08:30:09.855Z,49.30
2018-12-11T08:32:39.604Z,49.09
2018-12-11T08:35:08.787Z,49.58
2018-12-11T08:37:37.964Z,49.65
2018-12-11T08:40:07.816Z,49.23
2018-12-11T08:42:37.467Z,48.51
2018-12-11T08:45:07.432Z,48.92
2018-12-11T08:47:36.737Z,48.47
2018-12-11T08:50:08.018Z,48.40
2018-12-11T08:52:38.221Z,48.45
2018-12-11T08:55:07.561Z,47.91
2018-12-11T08:57:37.072Z,48.51
2018-12-11T09:00:07.864Z,48.29
2018-12-11T09:02:37.635Z,48.62
2018-12-11T09:05:07.323Z,48.36
2018-12-11T09:07:37.816Z,48.20
2018-12-11T09:10:07.857Z,48.27
2018-12-11T09:12:37.035Z,48.41
2018-12-11T09:15:08.044Z,48.12
2018-12-11T09:17:37.202Z,47.74
2018-12-11T09:20:06.580Z,48.00
2018-12-11T09:22:35.823Z,47.71
2018-12-11T09:25:05.799Z,47.33
2018-12-11T09:27:35.859Z,47.21
2018-12-11T09:30:06.321Z,47.45
2018-12-11T09:32:35.552Z,47.50
2018-12-11T09:35:06.555Z,46.82
2018-12-11T09:37:37.175Z,50.57
2018-12-11T09:40:06.631Z,48.25
2018-12-11T09:42:35.876Z,47.20
2018-12-11T09:45:08.099Z,47.29
2018-12-11T09:47:37.553Z,47.32
2018-12-11T09:50:09.347Z,48.34
2018-12-11T09:52:38.550Z,49.07
2018-12-11T09:55:07.949Z,48.82
2018-12-11T09:57:37.155Z,48.61
2018-12-11T10:00:09.224Z,49.13
2018-12-11T10:02:39.450Z,49.67
2018-12-11T10:05:08.867Z,49.82
2018-12-11T10:07:38.086Z,49.17
2018-12-11T10:10:08.059Z,48.69
2018-12-11T10:12:37.291Z,48.51
2018-12-11T10:15:07.669Z,48.34
2018-12-11T10:17:38.104Z,48.28
2018-12-11T10:20:07.526Z,47.74
2018-12-11T10:22:38.468Z,47.63
2018-12-11T10:25:08.528Z,47.47
2018-12-11T10:27:37.738Z,47.30
2018-12-11T10:30:08.995Z,47.40
2018-12-11T10:32:38.560Z,47.10
2018-12-11T10:35:09.743Z,46.46
2018-12-11T10:37:39.031Z,46.76
2018-12-11T10:40:08.203Z,47.89
2018-12-11T10:49:25.970Z,49.12
2018-12-11T10:51:55.638Z,48.76
2018-12-11T10:54:24.838Z,44.58
2018-12-11T10:56:54.559Z,42.48
2018-12-11T10:59:23.785Z,41.96
2018-12-11T11:01:54.366Z,42.54
2018-12-11T11:04:23.791Z,42.38
2018-12-11T11:06:52.942Z,42.92
2018-12-11T11:09:22.159Z,43.39
2018-12-11T11:11:51.475Z,43.35
2018-12-11T11:14:22.148Z,43.74
2018-12-11T11:16:51.568Z,43.71
2018-12-11T11:19:20.811Z,44.29
2018-12-11T11:21:49.995Z,44.57
2018-12-11T11:24:19.236Z,43.80
2018-12-11T11:26:51.203Z,43.99
2018-12-11T11:29:20.404Z,44.61
2018-12-11T11:31:49.589Z,44.19
2018-12-11T11:34:19.821Z,44.66
2018-12-11T11:36:51.047Z,44.37
2018-12-11T11:39:20.414Z,44.40
2018-12-11T11:41:49.612Z,44.88
2018-12-11T11:44:18.820Z,44.79
2018-12-11T11:46:49.233Z,44.52
2018-12-11T11:49:20.399Z,44.69
2018-12-11T11:51:49.596Z,44.40
2018-12-11T11:54:19.764Z,43.40
2018-12-11T11:56:49.025Z,42.78
2018-12-11T11:59:18.224Z,42.93
2018-12-11T12:01:48.527Z,42.81
2018-12-11T12:08:59.322Z,44.11
2018-12-11T12:11:27.533Z,43.64
2018-12-11T12:13:59.149Z,44.14
2018-12-11T12:16:28.495Z,44.14
2018-12-11T12:18:57.735Z,44.35
2018-12-11T12:21:26.988Z,44.99
2018-12-11T12:23:56.675Z,44.61
2018-12-11T12:26:28.371Z,44.67
2018-12-11T12:28:57.844Z,44.54
2018-12-11T12:31:27.450Z,43.99
2018-12-11T12:33:58.476Z,44.37
2018-12-11T12:36:27.777Z,44.48
2018-12-11T12:38:56.950Z,44.30
2018-12-11T12:41:26.240Z,44.26
2018-12-11T12:43:55.462Z,43.78
2018-12-11T12:46:25.686Z,43.27
2018-12-11T12:48:54.963Z,43.23
2018-12-11T12:51:24.159Z,43.01
2018-12-11T12:53:53.363Z,43.62
2018-12-11T12:56:23.797Z,42.90
2018-12-11T12:58:53.973Z,43.50
2018-12-11T13:01:23.150Z,44.16
2018-12-11T13:03:52.480Z,45.68
2018-12-11T13:06:21.896Z,46.27
2018-12-11T13:08:51.235Z,46.70
2018-12-11T13:11:21.771Z,47.45
2018-12-11T13:13:50.953Z,49.16
2018-12-11T13:16:20.199Z,48.20
2018-12-11T13:18:49.431Z,49.81
2018-12-11T13:21:18.627Z,49.69
2018-12-11T13:23:49.697Z,50.05
2018-12-11T13:26:20.306Z,50.13
2018-12-11T13:28:49.547Z,50.75
2018-12-11T13:31:18.831Z,50.61
2018-12-11T13:33:48.515Z,49.98
2018-12-11T13:36:18.199Z,50.20
2018-12-11T13:38:47.434Z,49.56
2018-12-11T13:41:16.795Z,48.75
2018-12-11T13:43:46.629Z,49.36
2018-12-11T13:46:16.688Z,49.83
2018-12-11T13:48:47.401Z,49.82
2018-12-11T13:51:16.607Z,49.73
2018-12-11T13:53:45.803Z,49.01
2018-12-11T13:56:15.636Z,49.23
2018-12-11T13:58:46.609Z,49.15
2018-12-11T14:01:15.890Z,50.10
2018-12-11T14:03:45.243Z,50.16
2018-12-11T14:06:14.467Z,49.65
2018-12-11T14:08:44.448Z,50.45
2018-12-11T14:11:13.720Z,51.01
2018-12-11T14:13:42.901Z,49.22
2018-12-11T14:16:12.118Z,49.01
2018-12-11T14:18:41.415Z,48.81
2018-12-11T14:21:11.603Z,48.84
2018-12-11T14:23:40.724Z,48.29
2018-12-11T14:26:11.162Z,49.30
2018-12-11T14:28:40.317Z,49.37
2018-12-11T14:31:11.043Z,49.94
2018-12-11T14:33:41.519Z,49.56
2018-12-11T14:36:10.883Z,49.69
2018-12-11T14:38:40.121Z,49.71
2018-12-11T14:41:09.388Z,50.11
2018-12-11T14:43:39.548Z,49.73
2018-12-11T14:46:08.751Z,49.72
2018-12-11T14:48:39.670Z,49.70
2018-12-11T14:51:09.025Z,49.91
2018-12-11T14:53:38.915Z,49.43
2018-12-11T14:56:10.578Z,49.45
2018-12-11T14:58:39.923Z,49.68
2018-12-11T15:01:09.633Z,49.92
2018-12-11T15:03:39.650Z,49.58
2018-12-11T15:06:09.003Z,50.00
2018-12-11T15:08:38.932Z,49.89
2018-12-11T15:11:08.343Z,49.56
2018-12-11T15:13:39.052Z,49.88
2018-12-11T15:16:09.434Z,49.54
2018-12-11T15:18:39.817Z,49.13
2018-12-11T15:21:10.139Z,49.88
2018-12-11T15:23:39.362Z,49.37
2018-12-11T15:26:09.227Z,49.46
2018-12-11T15:28:39.070Z,49.26
2018-12-11T15:31:11.234Z,49.13
2018-12-11T15:33:40.829Z,48.95
2018-12-11T15:36:11.651Z,48.72
2018-12-11T15:38:41.670Z,49.38
2018-12-11T15:41:41.743Z,48.89
2018-12-11T15:44:11.022Z,49.28
2018-12-11T15:46:41.019Z,49.08
2018-12-11T15:49:11.159Z,49.28
2018-12-11T15:51:41.419Z,48.92
2018-12-11T15:54:10.670Z,48.80
2018-12-11T15:56:40.273Z,49.92
2018-12-11T15:59:11.270Z,49.81
2018-12-11T16:01:41.594Z,49.75
2018-12-11T16:04:11.148Z,49.23
2018-12-11T16:06:40.517Z,49.90
2018-12-11T16:09:12.010Z,49.73
2018-12-11T16:11:42.294Z,49.75
2018-12-11T16:14:13.047Z,49.67
2018-12-11T16:16:42.257Z,49.56
2018-12-11T16:19:12.468Z,49.94
2018-12-11T16:21:41.672Z,50.10
2018-12-11T16:24:13.573Z,49.71
2018-12-11T16:26:43.309Z,49.71
2018-12-11T16:29:13.058Z,49.73
2018-12-11T16:31:46.807Z,49.41
2018-12-11T16:34:16.024Z,49.59
2018-12-11T16:36:45.803Z,49.11
2018-12-11T16:39:17.743Z,49.35
2018-12-11T16:41:46.984Z,49.45
2018-12-11T16:44:16.159Z,49.26
2018-12-11T16:46:45.441Z,48.72
2018-12-11T16:49:15.094Z,48.69
2018-12-11T16:51:44.662Z,49.00
2018-12-11T16:54:13.907Z,49.09
2018-12-11T16:56:43.729Z,49.09
2018-12-11T16:59:12.895Z,48.81
2018-12-11T17:01:45.880Z,48.90
2018-12-11T17:04:15.493Z,48.98
2018-12-11T17:06:44.712Z,49.16
2018-12-11T17:09:15.404Z,49.06
2018-12-11T17:11:44.595Z,49.53
2018-12-11T17:14:14.826Z,49.60
2018-12-11T17:16:44.879Z,49.39
2018-12-11T17:19:14.060Z,49.42
2018-12-11T17:21:46.922Z,49.70
2018-12-11T17:24:16.082Z,49.91
2018-12-11T17:26:45.300Z,49.84
2018-12-11T17:29:14.569Z,49.79
2018-12-11T17:31:45.254Z,49.64
2018-12-11T17:34:16.319Z,50.19
2018-12-11T17:36:47.632Z,49.82
2018-12-11T17:39:18.227Z,49.76
2018-12-11T17:41:47.457Z,49.63
2018-12-11T17:44:17.667Z,49.66
2018-12-11T17:46:46.907Z,48.73
2018-12-11T17:49:16.228Z,48.31
2018-12-11T17:51:45.425Z,48.30
2018-12-11T17:54:14.767Z,48.33
2018-12-11T17:56:45.099Z,47.80
2018-12-11T17:59:14.623Z,48.10
2018-12-11T18:01:48.082Z,48.32
2018-12-11T18:04:17.327Z,48.26
2018-12-11T18:06:47.779Z,48.12
2018-12-11T18:09:20.226Z,48.37
2018-12-11T18:11:49.457Z,48.09
2018-12-11T18:14:18.900Z,47.58
2018-12-11T18:16:49.611Z,47.47
2018-12-11T18:19:18.825Z,46.89
2018-12-11T18:21:48.969Z,46.72
2018-12-11T18:24:18.349Z,47.14
2018-12-11T18:26:47.509Z,46.57
2018-12-11T18:29:17.547Z,46.88
2018-12-11T18:31:48.110Z,46.85
2018-12-11T18:34:17.699Z,46.57
2018-12-11T18:36:47.058Z,46.82
2018-12-11T18:39:16.896Z,46.36
2018-12-11T18:41:48.157Z,46.55
2018-12-11T18:44:17.551Z,46.29
2018-12-11T18:46:47.032Z,46.44
2018-12-11T18:49:16.230Z,46.84
2018-12-11T18:51:46.532Z,46.27
2018-12-11T18:54:15.864Z,46.20
2018-12-11T18:56:45.030Z,46.88
2018-12-11T18:59:14.380Z,46.29
2018-12-11T19:01:43.599Z,46.44
2018-12-11T19:04:15.395Z,46.68
2018-12-11T19:06:44.800Z,46.83
2018-12-11T19:09:14.001Z,46.45
2018-12-11T19:11:45.315Z,46.13
2018-12-11T19:14:15.061Z,46.51
2018-12-11T19:16:44.762Z,46.71
2018-12-11T19:19:14.205Z,46.41
2018-12-11T19:21:43.430Z,46.66
2018-12-11T19:24:28.791Z,46.91
2018-12-11T19:26:58.652Z,47.18
2018-12-11T19:29:28.984Z,47.50
2018-12-11T19:31:58.226Z,47.35
2018-12-11T19:34:27.832Z,47.69
2018-12-11T19:36:58.272Z,47.58
2018-12-11T19:39:28.992Z,47.49
2018-12-11T19:41:58.212Z,47.98
2018-12-11T19:44:28.108Z,48.07
2018-12-11T19:46:58.517Z,48.58
2018-12-11T19:49:27.750Z,48.79
2018-12-11T19:51:57.431Z,48.92
2018-12-11T19:54:27.493Z,48.91
2018-12-11T19:56:57.729Z,48.46
2018-12-11T19:59:26.967Z,48.40
2018-12-11T20:01:56.195Z,48.16
2018-12-11T20:04:27.436Z,48.62
2018-12-11T20:06:57.206Z,48.56
2018-12-11T20:16:14.090Z,50.51
2018-12-11T20:18:44.908Z,50.03
2018-12-11T20:21:16.267Z,49.80
2018-12-11T20:23:45.649Z,49.41
2018-12-11T20:26:15.013Z,49.43
2018-12-11T20:28:44.852Z,50.13
2018-12-11T20:31:17.850Z,50.37
2018-12-11T20:33:47.318Z,50.28
2018-12-11T20:36:16.928Z,50.36
2018-12-11T20:38:47.885Z,50.04
2018-12-11T20:41:17.411Z,49.70
2018-12-11T20:43:47.398Z,49.51
2018-12-11T20:46:16.708Z,49.44
2018-12-11T20:48:47.097Z,49.57
2018-12-11T20:51:16.405Z,49.58
2018-12-11T20:53:45.606Z,49.59
2018-12-11T20:56:15.791Z,49.91
2018-12-11T20:58:44.999Z,49.42
2018-12-11T21:01:15.202Z,49.15
2018-12-11T21:03:44.731Z,49.25
2018-12-11T21:06:13.987Z,49.29
2018-12-11T21:08:44.635Z,48.76
2018-12-11T21:11:13.891Z,49.29
2018-12-11T21:13:44.520Z,49.39
2018-12-11T21:16:13.745Z,49.19
2018-12-11T21:18:43.311Z,49.34
2018-12-11T21:21:12.939Z,49.10
2018-12-11T21:23:42.323Z,49.59
2018-12-11T21:26:12.707Z,49.97
2018-12-11T21:28:42.121Z,49.46
2018-12-11T21:31:11.428Z,49.06
2018-12-11T21:33:40.746Z,48.99
2018-12-11T21:36:10.008Z,49.56
2018-12-11T21:38:40.595Z,49.25
2018-12-11T21:41:10.981Z,49.19
2018-12-11T21:43:40.222Z,49.31
2018-12-11T21:46:09.651Z,49.45
2018-12-11T21:48:41.535Z,49.50
2018-12-11T21:51:11.151Z,50.12
2018-12-11T21:53:40.568Z,49.74
2018-12-11T21:56:10.379Z,49.62
2018-12-11T21:58:40.525Z,49.79
2018-12-11T22:01:13.166Z,49.25
2018-12-11T22:03:42.814Z,49.93
2018-12-11T22:06:12.498Z,50.19
2018-12-11T22:08:41.895Z,49.88
2018-12-11T22:11:12.291Z,49.80
2018-12-11T22:13:42.130Z,49.90
2018-12-11T22:16:11.341Z,50.31
2018-12-11T22:18:40.540Z,50.38
2018-12-11T22:21:09.748Z,50.49
2018-12-11T22:23:41.224Z,50.41
2018-12-11T22:26:11.380Z,50.22
2018-12-11T22:28:40.728Z,50.24
2018-12-11T22:31:10.017Z,50.21
2018-12-11T22:33:40.867Z,50.08
2018-12-11T22:36:10.626Z,49.84
2018-12-11T22:38:39.817Z,50.32
2018-12-11T22:41:09.059Z,49.97
2018-12-11T22:43:38.258Z,50.24
2018-12-11T22:46:10.117Z,50.09
2018-12-11T22:48:39.525Z,49.89
2018-12-11T22:51:08.851Z,50.07
2018-12-11T22:53:38.435Z,50.27
2018-12-11T22:56:07.694Z,49.78
2018-12-11T22:58:37.940Z,50.17
2018-12-11T23:01:07.527Z,50.11
2018-12-11T23:03:36.727Z,49.86
2018-12-11T23:06:05.927Z,49.96
2018-12-11T23:08:36.458Z,50.24
2018-12-11T23:11:07.569Z,50.08
2018-12-11T23:13:38.030Z,50.02
2018-12-11T23:16:07.231Z,50.47
2018-12-11T23:18:36.476Z,49.96
2018-12-11T23:21:06.251Z,50.94
2018-12-11T23:23:36.944Z,50.38
2018-12-11T23:26:06.228Z,50.62
2018-12-11T23:28:36.719Z,50.17
2018-12-11T23:31:06.509Z,50.33
2018-12-11T23:33:37.302Z,49.73
2018-12-11T23:36:06.689Z,49.75
2018-12-11T23:38:35.859Z,50.11
2018-12-11T23:41:05.124Z,49.85
2018-12-11T23:43:35.169Z,49.93
2018-12-11T23:46:04.380Z,49.98
2018-12-11T23:48:34.219Z,49.95
2018-12-11T23:51:03.408Z,50.06
2018-12-11T23:53:32.596Z,49.57
2018-12-11T23:56:04.374Z,50.35
2018-12-11T23:58:33.547Z,49.88
